createdAt,value
2022-11-24T00:00:41.140Z,98926.34
2022-11-24T00:04:44.261Z,98920.22
2022-11-24T00:08:47.761Z,98919.38
2022-11-24T00:12:50.709Z,98930.69
2022-11-24T00:16:55.116Z,98928.09
2022-11-24T00:20:58.588Z,98942.03
2022-11-24T00:25:01.586Z,98942.91
2022-11-24T00:29:07.560Z,98945.50
2022-11-24T00:33:11.883Z,98950.75
2022-11-24T00:37:14.864Z,98956.84
2022-11-24T00:41:18.039Z,98947.25
2022-11-24T00:45:21.027Z,98955.09
2022-11-24T00:49:25.493Z,98954.25
2022-11-24T00:53:28.981Z,98955.97
2022-11-24T00:57:32.041Z,98967.31
2022-11-24T01:01:35.073Z,98961.22
2022-11-24T01:05:40.372Z,98971.66
2022-11-24T01:09:45.605Z,98973.38
2022-11-24T01:13:50.676Z,98973.34
2022-11-24T01:17:53.914Z,98971.59
2022-11-24T01:21:58.243Z,98969.88
2022-11-24T01:26:01.441Z,98979.47
2022-11-24T01:30:05.602Z,98980.31
2022-11-24T01:34:08.652Z,98989.06
2022-11-24T01:38:13.207Z,98989.06
2022-11-24T01:42:16.147Z,98992.53
2022-11-24T01:46:23.898Z,99003.84
2022-11-24T01:50:27.205Z,99004.72
2022-11-24T01:54:34.473Z,99004.72
2022-11-24T01:58:38.980Z,99004.72
2022-11-24T02:02:43.499Z,98999.47
2022-11-24T02:06:47.945Z,98993.38
2022-11-24T02:10:52.325Z,99003.84
2022-11-24T02:14:56.921Z,99004.69
2022-11-24T02:18:59.883Z,99001.22
2022-11-24T02:23:08.669Z,98998.63
2022-11-24T02:27:13.110Z,98996.81
2022-11-24T02:31:16.153Z,99007.31
2022-11-24T02:35:19.491Z,98998.63
2022-11-24T02:39:22.501Z,99004.72
2022-11-24T02:43:29.316Z,99009.09
2022-11-24T02:47:32.264Z,99013.47
2022-11-24T02:51:35.682Z,99012.63
2022-11-24T02:55:38.830Z,99010.91
2022-11-24T02:59:43.237Z,99004.84
2022-11-24T03:03:46.504Z,99011.78
2022-11-24T03:07:49.743Z,99008.28
2022-11-24T03:11:52.821Z,99015.25
2022-11-24T03:15:57.179Z,99010.84
2022-11-24T03:20:04.945Z,99016.91
2022-11-24T03:24:08.527Z,99016.91
2022-11-24T03:28:11.585Z,99017.72
2022-11-24T03:32:15.908Z,99020.34
2022-11-24T03:36:19.103Z,99020.34
2022-11-24T03:40:22.075Z,99026.47
2022-11-24T03:44:25.053Z,99031.66
2022-11-24T03:48:29.431Z,99034.31
2022-11-24T03:52:32.411Z,99035.19
2022-11-24T03:56:35.406Z,99042.19
2022-11-24T04:00:38.430Z,99044.78
2022-11-24T04:04:47.076Z,99043.00
2022-11-24T04:08:53.702Z,99049.09
2022-11-24T04:12:56.666Z,99063.00
2022-11-24T04:16:59.698Z,99062.13
2022-11-24T04:21:04.061Z,99071.69
2022-11-24T04:25:08.644Z,99083.84
2022-11-24T04:29:12.004Z,99095.13
2022-11-24T04:33:15.450Z,99100.31
2022-11-24T04:37:19.935Z,99105.50
2022-11-24T04:41:22.878Z,99119.41
2022-11-24T04:45:25.942Z,99112.41
2022-11-24T04:49:28.923Z,99119.31
2022-11-24T04:53:33.545Z,99122.75
2022-11-24T04:57:36.578Z,99124.38
2022-11-24T05:01:39.606Z,99126.09
2022-11-24T05:05:42.591Z,99118.25
2022-11-24T05:10:04.718Z,99124.25
2022-11-24T05:14:07.668Z,99131.19
2022-11-24T05:18:15.311Z,99132.91
2022-11-24T05:22:18.270Z,99141.59
2022-11-24T05:26:22.722Z,99143.31
2022-11-24T05:30:25.858Z,99145.03
2022-11-24T05:34:32.086Z,99149.41
2022-11-24T05:38:36.642Z,99157.25
2022-11-24T05:42:47.611Z,99158.91
2022-11-24T05:46:51.217Z,99166.75
2022-11-24T05:50:55.865Z,99168.53
2022-11-24T05:54:58.859Z,99181.50
2022-11-24T05:59:08.167Z,99175.38
2022-11-24T06:03:13.184Z,99183.19
2022-11-24T06:07:16.230Z,99188.44
2022-11-24T06:11:19.202Z,99194.53
2022-11-24T06:15:23.709Z,99198.84
2022-11-24T06:19:26.746Z,99205.78
2022-11-24T06:23:29.716Z,99212.78
2022-11-24T06:27:32.683Z,99215.41
2022-11-24T06:31:37.346Z,99219.72
2022-11-24T06:35:40.340Z,99224.03
2022-11-24T06:39:43.315Z,99217.97
2022-11-24T06:43:47.643Z,99221.47
2022-11-24T06:47:54.776Z,99232.84
2022-11-24T06:51:57.789Z,99236.44
2022-11-24T06:56:01.756Z,99248.69
2022-11-24T07:00:05.359Z,99249.66
2022-11-24T07:04:10.328Z,99251.47
2022-11-24T07:08:17.779Z,99252.38
2022-11-24T07:12:21.329Z,99265.44
2022-11-24T07:16:26.240Z,99275.94
2022-11-24T07:20:30.675Z,99278.59
2022-11-24T07:24:33.911Z,99283.00
2022-11-24T07:28:38.671Z,99284.81
2022-11-24T07:32:41.691Z,99290.09
2022-11-24T07:36:46.144Z,99297.13
2022-11-24T07:40:49.065Z,99298.09
2022-11-24T07:44:52.158Z,99295.53
2022-11-24T07:48:55.108Z,99297.31
2022-11-24T07:53:04.259Z,99313.13
2022-11-24T07:57:07.356Z,99305.34
2022-11-24T08:01:15.306Z,99307.94
2022-11-24T08:05:18.330Z,99314.09
2022-11-24T08:09:22.688Z,99313.25
2022-11-24T08:13:25.856Z,99315.03
2022-11-24T08:17:29.795Z,99326.41
2022-11-24T08:21:32.734Z,99323.81
2022-11-24T08:25:37.114Z,99330.81
2022-11-24T08:29:40.157Z,99337.81
2022-11-24T08:33:43.847Z,99334.38
2022-11-24T08:37:46.846Z,99345.81
2022-11-24T08:41:51.227Z,99347.56
2022-11-24T08:45:54.256Z,99343.25
2022-11-24T08:49:57.282Z,99360.75
2022-11-24T08:54:02.777Z,99362.53
2022-11-24T08:58:07.195Z,99367.78
2022-11-24T09:02:12.965Z,99373.00
2022-11-24T09:06:16.790Z,99359.03
2022-11-24T09:10:19.956Z,99375.59
2022-11-24T09:14:24.313Z,99378.22
2022-11-24T09:18:30.259Z,99380.84
2022-11-24T09:22:33.831Z,99379.97
2022-11-24T09:26:41.775Z,99374.72
2022-11-24T09:30:49.359Z,99367.78
2022-11-24T09:34:52.845Z,99367.81
2022-11-24T09:38:56.300Z,99374.78
2022-11-24T09:43:05.048Z,99366.03
2022-11-24T09:47:14.961Z,99369.47
2022-11-24T09:51:19.912Z,99368.59
2022-11-24T09:55:31.576Z,99370.34
2022-11-24T09:59:35.010Z,99370.38
2022-11-24T10:03:43.521Z,99369.56
2022-11-24T10:07:53.057Z,99376.59
2022-11-24T10:12:03.611Z,99374.88
2022-11-24T10:16:15.144Z,99375.78
2022-11-24T10:20:28.867Z,99380.13
2022-11-24T10:24:50.235Z,99374.91
2022-11-24T10:28:55.915Z,99376.66
2022-11-24T10:33:03.254Z,99374.09
2022-11-24T10:37:17.951Z,99378.47
2022-11-24T10:41:26.674Z,99388.97
2022-11-24T10:45:30.484Z,99381.97
2022-11-24T10:49:34.364Z,99395.94
2022-11-24T10:53:43.711Z,99396.91
2022-11-24T10:57:46.687Z,99398.72
2022-11-24T11:01:49.868Z,99390.91
2022-11-24T11:05:54.869Z,99390.00
2022-11-24T11:10:22.336Z,99383.94
2022-11-24T11:14:33.918Z,99394.41
2022-11-24T11:18:37.478Z,99387.44
2022-11-24T11:22:44.340Z,99387.44
2022-11-24T11:26:48.904Z,99389.19
2022-11-24T11:35:26.315Z,99382.22
2022-11-24T11:39:33.014Z,99386.56
2022-11-24T11:43:41.232Z,99382.19
2022-11-24T11:47:50.957Z,99382.22
2022-11-24T11:52:15.951Z,99383.00
2022-11-24T11:56:26.220Z,99387.41
2022-11-24T12:00:36.240Z,99387.44
2022-11-24T12:04:48.221Z,99379.56
2022-11-24T12:09:19.679Z,99384.88
2022-11-24T12:13:42.753Z,99391.84
2022-11-24T12:17:53.224Z,99396.22
2022-11-24T12:22:06.971Z,99391.81
2022-11-24T12:26:20.621Z,99398.78
2022-11-24T12:30:24.696Z,99394.41
2022-11-24T12:34:38.939Z,99402.25
2022-11-24T12:38:51.562Z,99392.69
2022-11-24T12:43:06.176Z,99392.69
2022-11-24T12:47:16.318Z,99395.31
2022-11-24T12:51:25.472Z,99394.50
2022-11-24T12:55:32.233Z,99410.25
2022-11-24T12:59:45.405Z,99383.16
2022-11-24T13:04:03.251Z,99393.66
2022-11-24T13:08:07.855Z,99406.69
2022-11-24T13:12:14.382Z,99398.81
2022-11-24T13:20:41.971Z,99408.41
2022-11-24T13:24:46.493Z,99416.28
2022-11-24T13:29:09.297Z,99418.88
2022-11-24T13:33:48.011Z,99408.34
2022-11-24T13:37:52.950Z,99412.72
2022-11-24T13:42:06.340Z,99417.13
2022-11-24T13:46:11.125Z,99411.03
2022-11-24T13:50:26.065Z,99428.56
2022-11-24T13:54:29.958Z,99424.22
2022-11-24T13:58:38.457Z,99429.50
2022-11-24T14:02:45.480Z,99434.72
2022-11-24T14:06:59.014Z,99436.53
2022-11-24T14:11:12.344Z,99443.50
2022-11-24T14:15:24.704Z,99440.88
2022-11-24T14:19:30.890Z,99448.75
2022-11-24T14:23:35.209Z,99449.63
2022-11-24T14:27:40.142Z,99450.47
2022-11-24T14:31:52.805Z,99455.72
2022-11-24T14:35:56.073Z,99452.25
2022-11-24T14:39:59.012Z,99457.50
2022-11-24T14:44:17.243Z,99450.56
2022-11-24T14:48:28.846Z,99468.00
2022-11-24T14:52:31.842Z,99453.16
2022-11-24T14:56:37.523Z,99454.03
2022-11-24T15:00:40.529Z,99472.34
2022-11-24T15:05:03.738Z,99468.78
2022-11-24T15:09:07.379Z,99474.91
2022-11-24T15:13:18.535Z,99476.63
2022-11-24T15:17:24.665Z,99471.38
2022-11-24T15:21:38.288Z,99484.44
2022-11-24T15:25:41.513Z,99487.03
2022-11-24T15:29:44.459Z,99494.03
2022-11-24T15:33:47.392Z,99469.59
2022-11-24T15:37:52.137Z,99488.81
2022-11-24T15:41:55.121Z,99493.22
2022-11-24T15:45:58.834Z,99497.56
2022-11-24T15:50:01.852Z,99495.81
2022-11-24T15:54:07.238Z,99505.47
2022-11-24T15:58:13.700Z,99519.59
2022-11-24T16:02:16.683Z,99534.41
2022-11-24T16:06:25.118Z,99534.41
2022-11-24T16:10:33.087Z,99534.41
2022-11-24T16:14:36.488Z,99531.78
2022-11-24T16:18:40.104Z,99539.63
2022-11-24T16:22:43.211Z,99534.41
2022-11-24T16:26:47.571Z,99532.66
2022-11-24T16:30:50.932Z,99527.44
2022-11-24T16:34:53.921Z,99543.16
2022-11-24T16:38:57.092Z,99543.19
2022-11-24T16:43:01.793Z,99541.41
2022-11-24T16:47:04.908Z,99558.00
2022-11-24T16:51:10.277Z,99559.75
2022-11-24T16:55:14.284Z,99566.72
2022-11-24T16:59:18.699Z,99569.34
2022-11-24T17:03:21.792Z,99573.72
2022-11-24T17:07:24.811Z,99578.09
2022-11-24T17:11:29.466Z,99578.97
2022-11-24T17:15:36.713Z,99582.50
2022-11-24T17:19:42.402Z,99587.78
2022-11-24T17:23:45.430Z,99586.97
2022-11-24T17:27:49.026Z,99601.84
2022-11-24T17:31:53.672Z,99607.13
2022-11-24T17:35:56.774Z,99610.63
2022-11-24T17:40:20.705Z,99617.63
2022-11-24T17:44:23.043Z,99608.03
2022-11-24T17:48:28.011Z,99616.78
2022-11-24T17:52:31.173Z,99615.00
2022-11-24T17:56:34.382Z,99622.03
2022-11-24T18:00:37.920Z,99617.66
2022-11-24T18:04:42.396Z,99621.16
2022-11-24T18:08:47.736Z,99615.03
2022-11-24T18:12:50.727Z,99623.78
2022-11-24T18:16:53.871Z,99627.31
2022-11-24T18:20:59.744Z,99629.06
2022-11-24T18:25:02.713Z,99639.56
2022-11-24T18:29:05.861Z,99638.75
2022-11-24T18:33:08.846Z,99644.84
2022-11-24T18:37:14.861Z,99643.09
2022-11-24T18:41:18.330Z,99655.41
2022-11-24T18:45:21.302Z,99644.94
2022-11-24T18:49:24.318Z,99647.63
2022-11-24T18:53:29.558Z,99658.19
2022-11-24T18:57:32.685Z,99660.84
2022-11-24T19:01:35.795Z,99659.13
2022-11-24T19:05:41.108Z,99662.66
2022-11-24T19:09:46.370Z,99661.75
2022-11-24T19:13:50.305Z,99664.38
2022-11-24T19:17:53.209Z,99670.53
2022-11-24T19:21:56.601Z,99676.59
2022-11-24T19:26:02.358Z,99689.69
2022-11-24T19:30:06.385Z,99678.31
2022-11-24T19:34:09.924Z,99677.44
2022-11-24T19:38:15.168Z,99687.00
2022-11-24T19:42:19.744Z,99696.63
2022-11-24T19:46:26.163Z,99689.66
2022-11-24T19:50:29.092Z,99696.63
2022-11-24T19:54:34.611Z,99692.28
2022-11-24T19:58:41.513Z,99691.34
2022-11-24T20:02:44.706Z,99707.88
2022-11-24T20:06:48.571Z,99712.34
2022-11-24T20:10:51.595Z,99714.97
2022-11-24T20:14:56.845Z,99721.13
2022-11-24T20:19:01.520Z,99717.63
2022-11-24T20:23:04.510Z,99734.22
2022-11-24T20:27:07.495Z,99736.00
2022-11-24T20:31:14.148Z,99737.72
2022-11-24T20:35:18.458Z,99742.91
2022-11-24T20:39:25.271Z,99740.34
2022-11-24T20:43:31.627Z,99753.44
2022-11-24T20:47:36.714Z,99759.56
2022-11-24T20:51:43.834Z,99756.97
2022-11-24T20:55:47.000Z,99763.13
2022-11-24T20:59:50.021Z,99761.38
2022-11-24T21:03:56.001Z,99766.59
2022-11-24T21:07:58.941Z,99768.34
2022-11-24T21:12:01.879Z,99771.84
2022-11-24T21:16:13.601Z,99770.97
2022-11-24T21:20:18.126Z,99771.88
2022-11-24T21:24:22.551Z,99786.75
2022-11-24T21:28:25.496Z,99785.03
2022-11-24T21:32:29.425Z,99780.69
2022-11-24T21:36:35.270Z,99792.94
2022-11-24T21:40:38.173Z,99776.31
2022-11-24T21:44:41.129Z,99789.41
2022-11-24T21:48:44.080Z,99796.34
2022-11-24T21:52:48.417Z,99797.19
2022-11-24T21:56:51.356Z,99800.69
2022-11-24T22:00:54.711Z,99792.78
2022-11-24T22:04:57.890Z,99793.69
2022-11-24T22:09:02.205Z,99791.94
2022-11-24T22:13:05.184Z,99806.00
2022-11-24T22:17:08.201Z,99813.03
2022-11-24T22:21:13.361Z,99813.06
2022-11-24T22:25:17.898Z,99821.84
2022-11-24T22:29:21.043Z,99824.47
2022-11-24T22:33:24.036Z,99826.22
2022-11-24T22:37:27.021Z,99829.72
2022-11-24T22:41:32.048Z,99836.72
2022-11-24T22:45:36.632Z,99829.69
2022-11-24T22:49:39.596Z,99834.06
2022-11-24T22:53:42.611Z,99839.31
2022-11-24T22:57:48.417Z,99841.03
2022-11-24T23:01:51.674Z,99840.19
2022-11-24T23:05:54.811Z,99843.69
2022-11-24T23:09:58.018Z,99841.97
2022-11-24T23:14:02.573Z,99837.63
2022-11-24T23:18:05.810Z,99847.19
2022-11-24T23:22:08.739Z,99853.34
2022-11-24T23:26:13.652Z,99846.28
2022-11-24T23:30:18.314Z,99847.16
2022-11-24T23:34:21.251Z,99854.09
2022-11-24T23:38:28.580Z,99864.47
2022-11-24T23:42:31.575Z,99860.88
2022-11-24T23:46:36.125Z,99871.31
2022-11-24T23:50:39.255Z,99865.94
2022-11-24T23:54:42.302Z,99866.78
2022-11-24T23:58:45.979Z,99865.00
